Řízení letového provozu České republiky
Letiste: LKKB Aktualizace: 20.07.2018 15:01:06  UTC
 METAR LKKB 20.07. 15:00 ...
METAR LKKB 201500Z 28008KT 260V320 CAVOK 28/07 Q1013 NOSIG RMK BLU BLU=
 TAF LKKB 20.07. 11:00 ...
TAF LKKB 201100Z 2012/2112 35006KT CAVOK      TEMPO 2012/2018 02010KT      BECMG 2018/2020 09009KT      TEMPO 2109/2112 16012G24KT 8000 SHRA SCT045TCU=